MMZ307 EGGW-LIPE
Flight info
| Callsign | MMZ307 |
|---|---|
| Flight time | N/A |
| Altitude | 41000 |
| Route | MATCH Q295 BRAIN P44 DAGGA M85 ITVIP L10 DVR UL9 KONAN UL607 SPI DCT LIRSU DCT KRH DCT BATUB DCT TIRUL M738 NATAG DCT UNTAD DCT ADOSA M738 BENUS |
| Aircraft | B772/H-SDE2E3FGHIJ5LORVWXY/LB1D1 |
Departure
| Time | N/A |
|---|---|
| Airport | London Luton Airport (EGGW) |
Arrival
| Time | 2026-04-27 09:36 |
|---|---|
| Airport | Bologna Guglielmo Marconi Airport (LIPE) |
| Time | Latitude | Longitude | Altitude | Speed | Heading |
|---|---|---|---|---|---|
| 2026-04-27 09:36 | 44.52902 | 11.29690 | 135 ft | 0 kts | 206° |
| 2026-04-27 09:47 | 44.52903 | 11.29691 | 135 ft | 2 kts | 206° |
| 2026-04-27 09:47 | 44.52919 | 11.29702 | 135 ft | 3 kts | 207° |
| 2026-04-27 09:47 | 44.52935 | 11.29713 | 128 ft | 3 kts | 207° |
| 2026-04-27 09:47 | 44.52952 | 11.29723 | 135 ft | 3 kts | 174° |
| 2026-04-27 09:48 | 44.52970 | 11.29715 | 135 ft | 3 kts | 133° |
| 2026-04-27 09:48 | 44.52975 | 11.29706 | 127 ft | 0 kts | 118° |
| 2026-04-27 09:50 | 44.52975 | 11.29707 | 128 ft | 0 kts | 118° |
| 2026-04-27 09:51 | 44.52965 | 11.29769 | 135 ft | 4 kts | 77° |
| 2026-04-27 09:51 | 44.52985 | 11.29791 | 126 ft | 4 kts | 30° |
| 2026-04-27 09:51 | 44.52995 | 11.29824 | 126 ft | 5 kts | 96° |
| 2026-04-27 09:51 | 44.52973 | 11.29907 | 131 ft | 12 kts | 115° |
| 2026-04-27 09:52 | 44.52935 | 11.30007 | 129 ft | 12 kts | 117° |
| 2026-04-27 09:52 | 44.52899 | 11.30108 | 129 ft | 12 kts | 116° |
| 2026-04-27 09:52 | 44.52874 | 11.30215 | 132 ft | 12 kts | 93° |
| 2026-04-27 09:52 | 44.52911 | 11.30309 | 133 ft | 12 kts | 37° |
| 2026-04-27 09:53 | 44.52954 | 11.30346 | 128 ft | 6 kts | 32° |
| 2026-04-27 09:53 | 44.52991 | 11.30367 | 133 ft | 6 kts | 360° |
| 2026-04-27 09:53 | 44.53013 | 11.30338 | 126 ft | 0 kts | 297° |
| 2026-04-27 09:53 | 44.53015 | 11.30332 | 125 ft | 7 kts | 297° |
| 2026-04-27 09:54 | 44.53109 | 11.30074 | 126 ft | 61 kts | 297° |
| 2026-04-27 09:54 | 44.53413 | 11.29224 | 128 ft | 132 kts | 296° |
| 2026-04-27 09:54 | 44.53905 | 11.27847 | 321 ft | 170 kts | 297° |
| 2026-04-27 09:54 | 44.54431 | 11.26382 | 1011 ft | 173 kts | 297° |
| 2026-04-27 09:55 | 44.54982 | 11.24852 | 1866 ft | 177 kts | 298° |
| 2026-04-27 09:55 | 44.55551 | 11.23286 | 2443 ft | 191 kts | 297° |
| 2026-04-27 09:55 | 44.56906 | 11.19514 | 2970 ft | 239 kts | 296° |
| 2026-04-27 09:56 | 44.57416 | 11.18084 | 3154 ft | 254 kts | 296° |
| 2026-04-27 09:56 | 44.58220 | 11.15830 | 3729 ft | 263 kts | 296° |
| 2026-04-27 09:56 | 44.59052 | 11.13518 | 4404 ft | 266 kts | 296° |
| 2026-04-27 09:56 | 44.59882 | 11.11193 | 5170 ft | 268 kts | 296° |
| 2026-04-27 09:57 | 44.60721 | 11.08849 | 5908 ft | 270 kts | 296° |
| 2026-04-27 09:57 | 44.61567 | 11.06483 | 6615 ft | 273 kts | 296° |
| 2026-04-27 09:57 | 44.62420 | 11.04096 | 7256 ft | 274 kts | 296° |
| 2026-04-27 09:57 | 44.63005 | 11.01568 | 7731 ft | 277 kts | 274° |
| 2026-04-27 09:58 | 44.62837 | 10.98957 | 8315 ft | 278 kts | 257° |
| 2026-04-27 09:58 | 44.62182 | 10.96412 | 8984 ft | 278 kts | 242° |
| 2026-04-27 09:58 | 44.61184 | 10.94072 | 9534 ft | 283 kts | 238° |
| 2026-04-27 09:58 | 44.60113 | 10.91740 | 10118 ft | 286 kts | 237° |
| 2026-04-27 09:59 | 44.59010 | 10.89388 | 10514 ft | 295 kts | 237° |
| 2026-04-27 09:59 | 44.57837 | 10.86905 | 10643 ft | 314 kts | 237° |
| 2026-04-27 09:59 | 44.56594 | 10.84282 | 10848 ft | 331 kts | 237° |
| 2026-04-27 09:59 | 44.55295 | 10.81544 | 11294 ft | 342 kts | 237° |
| 2026-04-27 10:00 | 44.53974 | 10.78724 | 11940 ft | 349 kts | 238° |
| 2026-04-27 10:00 | 44.52649 | 10.75854 | 12702 ft | 352 kts | 237° |
| 2026-04-27 10:00 | 44.51268 | 10.72986 | 13469 ft | 358 kts | 237° |